Time;durP1;ratioP1;P1;durP2;ratioP2;P2;SDS_P1;SDS_P2;PMS_P1;PMS_P2;Temp;Humidity;BMP_temperature;BMP_pressure;BME280_temperature;BME280_humidity;BME280_pressure;Samples;Min_cycle;Max_cycle;Signal;HPM_P1;HPM_P2
2021/06/07 00:01:39;;;;;;;14.25;4.65;;;;;;;14.78;59.49;100627.64;125788;1093;22810;-60
2021/06/07 00:04:11;;;;;;;15.17;5.17;;;;;;;14.75;59.42;100631.46;125868;1093;22759;-59
2021/06/07 00:06:46;;;;;;;14.37;5.80;;;;;;;14.74;59.54;100637.56;125908;1093;26360;-60
2021/06/07 00:09:18;;;;;;;13.20;5.05;;;;;;;14.68;59.71;100637.52;125913;1093;27648;-61
2021/06/07 00:11:53;;;;;;;16.70;5.70;;;;;;;14.62;60.46;100642.33;126079;1093;27699;-59
2021/06/07 00:14:30;;;;;;;15.55;5.20;;;;;;;14.55;60.43;100643.53;125864;1093;26264;-60
2021/06/07 00:17:05;;;;;;;14.10;5.10;;;;;;;14.47;60.33;100642.44;125730;1092;25893;-59
2021/06/07 00:19:40;;;;;;;13.90;5.20;;;;;;;14.41;60.71;100643.66;125844;1093;22777;-59
2021/06/07 00:22:12;;;;;;;13.05;5.55;;;;;;;14.33;60.86;100639.74;125731;1093;22777;-59
2021/06/07 00:24:43;;;;;;;13.65;4.45;;;;;;;14.28;61.13;100644.03;125652;1093;24442;-57
2021/06/07 00:27:15;;;;;;;12.80;4.90;;;;;;;14.27;60.29;100642.47;125758;1093;24449;-59
2021/06/07 00:29:45;;;;;;;12.07;4.03;;;;;;;14.26;60.66;100645.75;125833;1093;26369;-60
2021/06/07 00:32:18;;;;;;;15.20;4.65;;;;;;;14.21;60.87;100638.06;125930;1093;26654;-59
2021/06/07 00:34:49;;;;;;;11.75;4.20;;;;;;;14.14;61.39;100638.48;125709;1093;22864;-60
2021/06/07 00:37:20;;;;;;;12.90;4.20;;;;;;;14.10;61.24;100644.33;125668;1093;22902;-59
2021/06/07 00:39:51;;;;;;;14.03;4.50;;;;;;;14.05;61.72;100642.21;125814;1093;22787;-59
2021/06/07 00:42:22;;;;;;;12.80;4.45;;;;;;;14.05;61.08;100644.27;125779;1093;27354;-57
2021/06/07 00:44:56;;;;;;;10.60;4.30;;;;;;;14.03;61.56;100646.80;125723;1093;22811;-59
2021/06/07 00:47:28;;;;;;;11.60;3.95;;;;;;;14.02;61.29;100648.05;125739;1093;25858;-59
2021/06/07 00:49:59;;;;;;;11.90;4.05;;;;;;;14.02;61.30;100639.63;125756;1093;22909;-61
2021/06/07 00:52:32;;;;;;;11.63;4.57;;;;;;;14.00;62.06;100640.13;125794;1093;22851;-60
2021/06/07 00:55:08;;;;;;;15.20;4.40;;;;;;;14.01;62.01;100646.52;125731;1092;22861;-62
2021/06/07 00:57:40;;;;;;;11.25;4.30;;;;;;;13.96;62.66;100635.99;125811;1092;22791;-60
2021/06/07 01:00:14;;;;;;;16.45;4.40;;;;;;;13.91;62.49;100631.07;125743;1093;22875;-60
2021/06/07 01:02:45;;;;;;;14.57;4.67;;;;;;;13.91;62.40;100636.69;125874;1092;27418;-59
2021/06/07 01:05:16;;;;;;;14.05;4.90;;;;;;;13.88;62.48;100646.10;125721;1093;24598;-60
2021/06/07 01:07:47;;;;;;;14.23;4.40;;;;;;;13.85;63.23;100636.63;125911;1093;22861;-58
2021/06/07 01:10:19;;;;;;;9.73;3.70;;;;;;;13.84;63.01;100640.71;125848;1093;27358;-59
2021/06/07 01:12:51;;;;;;;8.67;3.77;;;;;;;13.84;63.06;100632.30;125905;1092;22813;-60
2021/06/07 01:15:23;;;;;;;13.50;4.05;;;;;;;13.82;63.48;100631.23;125899;1091;22799;-59
2021/06/07 01:17:54;;;;;;;10.83;4.43;;;;;;;13.79;63.16;100642.19;125792;1093;25922;-59
2021/06/07 01:20:26;;;;;;;11.37;4.50;;;;;;;13.74;63.29;100631.65;125819;1093;22788;-60
2021/06/07 01:22:57;;;;;;;11.00;4.30;;;;;;;13.74;63.25;100633.67;125763;1093;22777;-59
2021/06/07 01:25:31;;;;;;;12.60;4.40;;;;;;;13.73;63.34;100641.34;125763;1093;22775;-59
2021/06/07 01:28:06;;;;;;;12.07;4.17;;;;;;;13.72;63.35;100631.37;125852;1093;22774;-60
2021/06/07 01:30:40;;;;;;;13.20;3.75;;;;;;;13.73;63.25;100632.15;126046;1091;22806;-60
2021/06/07 01:33:13;;;;;;;10.75;3.90;;;;;;;13.71;63.79;100641.06;125921;1093;25961;-59
2021/06/07 01:35:45;;;;;;;11.87;5.00;;;;;;;13.66;64.08;100638.95;125911;1093;25941;-59
2021/06/07 01:38:18;;;;;;;13.10;4.30;;;;;;;13.64;64.04;100633.05;125879;1093;22817;-59
2021/06/07 01:40:52;;;;;;;11.05;4.10;;;;;;;13.62;63.93;100629.97;125792;1092;27632;-60
2021/06/07 01:43:23;;;;;;;15.20;4.70;;;;;;;13.62;63.73;100632.00;125818;1093;22861;-59
2021/06/07 01:45:56;;;;;;;11.80;4.30;;;;;;;13.64;63.65;100632.28;125903;1093;27249;-59
2021/06/07 01:48:27;;;;;;;15.60;4.80;;;;;;;13.64;64.15;100626.67;125920;1093;24477;-59
2021/06/07 01:51:02;;;;;;;10.60;3.80;;;;;;;13.63;63.84;100625.14;125902;1093;22889;-59
2021/06/07 01:53:34;;;;;;;16.15;4.30;;;;;;;13.61;64.35;100627.66;125807;1093;27318;-60
2021/06/07 01:56:08;;;;;;;16.40;4.53;;;;;;;13.60;63.73;100621.27;125858;1093;24265;-60
2021/06/07 01:58:40;;;;;;;12.30;4.50;;;;;;;13.62;64.20;100624.36;125885;1093;22833;-60
2021/06/07 02:01:14;;;;;;;13.13;4.07;;;;;;;13.64;64.09;100619.03;125741;1093;24195;-59
2021/06/07 02:03:45;;;;;;;12.60;4.30;;;;;;;13.65;64.07;100625.42;125961;1093;22774;-60
2021/06/07 02:06:22;;;;;;;14.13;4.47;;;;;;;13.66;64.29;100624.92;125820;1093;22810;-58
2021/06/07 02:08:55;;;;;;;10.95;4.25;;;;;;;13.61;63.82;100636.83;125802;1092;25957;-58
2021/06/07 02:11:27;;;;;;;10.60;4.43;;;;;;;13.58;64.73;100632.22;125893;1093;23315;-60
2021/06/07 02:14:03;;;;;;;14.17;4.40;;;;;;;13.55;64.60;100627.57;125852;1092;22951;-58
2021/06/07 02:16:39;;;;;;;12.80;4.67;;;;;;;13.54;64.29;100636.48;125825;1093;22774;-60
2021/06/07 02:19:10;;;;;;;13.23;4.83;;;;;;;13.50;64.37;100628.28;125867;1093;22878;-59
2021/06/07 02:21:42;;;;;;;14.77;4.63;;;;;;;13.50;64.66;100630.31;125869;1093;25627;-61
2021/06/07 02:24:15;;;;;;;12.43;4.53;;;;;;;13.48;65.04;100628.00;125797;1093;22794;-60
2021/06/07 02:26:46;;;;;;;12.70;5.15;;;;;;;13.47;64.62;100632.05;125783;1093;22934;-59
2021/06/07 02:29:17;;;;;;;15.70;5.05;;;;;;;13.43;64.73;100623.08;125873;1093;22846;-59
2021/06/07 02:31:48;;;;;;;15.00;4.73;;;;;;;13.40;64.66;100626.88;125889;1093;22757;-59
2021/06/07 02:34:20;;;;;;;14.53;4.27;;;;;;;13.41;64.45;100622.80;125743;1093;22806;-59
2021/06/07 02:36:50;;;;;;;18.17;4.93;;;;;;;13.43;64.45;100623.08;125739;1093;22796;-60
2021/06/07 02:39:23;;;;;;;13.90;5.40;;;;;;;13.44;64.77;100624.64;125760;1093;22797;-59
2021/06/07 02:41:55;;;;;;;12.30;5.00;;;;;;;13.42;64.88;100627.16;125731;1093;23604;-58
2021/06/07 02:44:26;;;;;;;15.90;6.40;;;;;;;13.38;65.49;100623.80;125919;1093;22932;-59
2021/06/07 02:46:58;;;;;;;12.97;5.50;;;;;;;13.35;65.11;100618.38;125784;1092;22801;-59
2021/06/07 02:49:29;;;;;;;16.60;5.40;;;;;;;13.32;65.27;100625.75;125804;1093;26289;-60
2021/06/07 02:52:00;;;;;;;14.35;5.50;;;;;;;13.27;65.39;100623.63;125718;1093;25862;-60
2021/06/07 02:54:31;;;;;;;15.50;5.78;;;;;;;13.23;65.28;100625.09;125855;1093;22807;-61
2021/06/07 02:57:03;;;;;;;18.20;5.80;;;;;;;13.20;65.62;100624.03;125801;1092;22883;-59
2021/06/07 02:59:34;;;;;;;23.30;5.95;;;;;;;13.16;65.99;100617.85;125919;1093;27512;-60
2021/06/07 03:02:06;;;;;;;16.35;5.55;;;;;;;13.15;65.59;100621.16;125830;1093;27763;-59
2021/06/07 03:04:37;;;;;;;13.80;5.30;;;;;;;13.18;65.33;100623.74;125902;1093;22801;-58
2021/06/07 03:07:09;;;;;;;13.33;5.20;;;;;;;13.20;66.65;100623.28;125763;1093;26101;-60
2021/06/07 03:09:41;;;;;;;16.93;6.60;;;;;;;13.14;67.04;100631.59;125889;1092;22771;-60
2021/06/07 03:12:16;;;;;;;15.93;6.27;;;;;;;13.08;67.55;100627.94;126483;1092;22791;-56
2021/06/07 03:14:48;;;;;;;21.20;8.20;;;;;;;13.05;67.94;100628.92;125811;1093;22852;-55
2021/06/07 03:17:18;;;;;;;22.73;8.00;;;;;;;13.05;67.47;100625.34;125713;1093;22761;-57
2021/06/07 03:19:49;;;;;;;19.40;7.35;;;;;;;13.05;67.91;100628.92;125787;1093;22800;-58
2021/06/07 03:22:22;;;;;;;18.90;7.53;;;;;;;13.08;68.15;100629.98;125917;1093;23007;-59
2021/06/07 03:24:54;;;;;;;15.87;6.63;;;;;;;13.08;68.20;100627.94;125980;1093;22764;-55
2021/06/07 03:27:25;;;;;;;18.23;6.80;;;;;;;13.10;68.45;100633.82;125843;1093;22790;-56
2021/06/07 03:29:56;;;;;;;16.40;6.15;;;;;;;13.12;68.35;100633.36;125797;1093;24594;-55
2021/06/07 03:32:31;;;;;;;14.95;6.60;;;;;;;13.15;68.33;100637.97;126182;1093;25963;-54
2021/06/07 03:35:03;;;;;;;15.57;6.27;;;;;;;13.19;67.88;100636.52;126067;1093;24466;-55
2021/06/07 03:37:34;;;;;;;16.13;6.53;;;;;;;13.24;68.37;100632.25;125930;1093;22819;-56
2021/06/07 03:40:10;;;;;;;17.23;6.83;;;;;;;13.28;68.10;100633.60;125838;1093;22765;-56
2021/06/07 03:42:41;;;;;;;16.95;6.25;;;;;;;13.34;68.08;100623.23;126066;1093;22783;-56
2021/06/07 03:45:15;;;;;;;19.07;8.67;;;;;;;13.39;69.02;100627.34;126054;1093;27312;-56
2021/06/07 03:47:48;;;;;;;15.30;6.87;;;;;;;13.43;68.86;100628.69;125930;1093;22847;-55
2021/06/07 03:50:22;;;;;;;14.77;6.63;;;;;;;13.47;68.58;100626.45;125819;1092;22797;-56
2021/06/07 03:52:54;;;;;;;15.55;8.20;;;;;;;13.52;69.46;100636.98;125774;1093;22789;-58
2021/06/07 03:55:27;;;;;;;22.25;8.25;;;;;;;13.56;69.13;100640.34;125912;1093;22851;-57
2021/06/07 03:57:59;;;;;;;15.35;7.90;;;;;;;13.61;69.30;100644.50;126079;1093;22761;-57
2021/06/07 04:00:33;;;;;;;19.65;7.95;;;;;;;13.66;69.24;100644.56;125925;1093;22794;-56
2021/06/07 04:03:06;;;;;;;18.15;8.65;;;;;;;13.72;68.63;100639.78;125953;1092;22793;-57
2021/06/07 04:05:40;;;;;;;16.77;8.30;;;;;;;13.77;68.98;100636.29;126168;1093;22872;-58
2021/06/07 04:08:14;;;;;;;17.55;7.95;;;;;;;13.82;68.52;100639.66;125923;1093;22833;-57
2021/06/07 04:10:47;;;;;;;14.10;7.20;;;;;;;13.88;68.11;100638.46;125851;1093;22774;-57
2021/06/07 04:13:21;;;;;;;17.60;8.05;;;;;;;13.94;68.76;100638.52;125695;1092;22835;-56
2021/06/07 04:15:53;;;;;;;13.65;6.20;;;;;;;14.01;67.61;100646.52;125934;1093;22797;-58
2021/06/07 04:18:25;;;;;;;14.43;7.07;;;;;;;14.09;68.33;100642.02;126080;1092;25729;-57
2021/06/07 04:20:59;;;;;;;15.35;7.03;;;;;;;14.16;68.28;100647.19;125911;1093;22806;-57
2021/06/07 04:23:30;;;;;;;16.63;7.75;;;;;;;14.24;67.88;100648.29;125848;1093;22749;-57
2021/06/07 04:26:01;;;;;;;19.17;8.90;;;;;;;14.31;68.86;100653.51;126015;1093;22787;-57
2021/06/07 04:28:33;;;;;;;22.03;10.23;;;;;;;14.37;68.84;100645.91;125894;1093;24469;-56
2021/06/07 04:31:04;;;;;;;19.85;9.90;;;;;;;14.41;69.44;100652.08;126044;1093;22816;-56
2021/06/07 04:33:35;;;;;;;18.17;9.13;;;;;;;14.44;69.83;100651.84;125896;1092;27627;-58
2021/06/07 04:36:06;;;;;;;25.20;9.70;;;;;;;14.46;69.70;100648.56;125973;1093;22864;-58
2021/06/07 04:38:37;;;;;;;21.05;10.00;;;;;;;14.47;70.08;100653.67;126195;1093;22789;-57
2021/06/07 04:41:09;;;;;;;26.90;9.90;;;;;;;14.51;69.96;100662.66;125837;1093;26005;-57
2021/06/07 04:43:44;;;;;;;22.97;10.10;;;;;;;14.58;69.74;100658.64;126137;1093;27512;-57
2021/06/07 04:46:15;;;;;;;21.05;10.00;;;;;;;14.64;70.12;100653.05;125960;1093;22768;-59
2021/06/07 04:48:46;;;;;;;21.87;9.93;;;;;;;14.71;69.13;100649.81;125767;1093;26232;-60
2021/06/07 04:51:17;;;;;;;20.50;10.40;;;;;;;14.79;70.05;100651.68;126089;1092;25977;-61
2021/06/07 04:53:48;;;;;;;20.40;10.50;;;;;;;14.90;70.31;100650.97;125824;1093;22766;-60
2021/06/07 04:56:19;;;;;;;24.50;12.20;;;;;;;15.03;70.50;100643.68;125828;1093;23016;-61
2021/06/07 04:58:50;;;;;;;23.97;12.00;;;;;;;15.21;70.24;100648.13;125529;1091;26057;-61
2021/06/07 05:01:22;;;;;;;24.27;12.43;;;;;;;15.38;69.86;100635.73;125854;1093;22986;-60
2021/06/07 05:03:52;;;;;;;27.40;14.15;;;;;;;15.55;69.86;100649.92;125834;1092;22770;-61
2021/06/07 05:06:23;;;;;;;23.17;12.87;;;;;;;15.66;69.89;100652.02;125892;1093;27278;-60
2021/06/07 05:08:55;;;;;;;25.95;13.05;;;;;;;15.78;69.81;100645.95;125967;1093;23062;-60
2021/06/07 05:11:25;;;;;;;21.45;11.80;;;;;;;15.91;69.49;100642.67;125622;1093;22778;-60
2021/06/07 05:13:59;;;;;;;22.05;13.40;;;;;;;16.03;69.83;100641.43;125755;1092;22767;-61
2021/06/07 05:16:31;;;;;;;23.67;13.37;;;;;;;16.15;70.09;100640.18;125742;1093;22851;-59
2021/06/07 05:19:02;;;;;;;22.85;12.60;;;;;;;16.25;69.19;100641.48;127798;1093;27183;-59
2021/06/07 05:21:33;;;;;;;25.20;13.47;;;;;;;16.39;69.38;100639.73;125845;1093;27263;-60
2021/06/07 05:24:05;;;;;;;23.20;13.00;;;;;;;16.51;68.85;100646.95;125841;1091;22796;-60
2021/06/07 05:26:36;;;;;;;26.60;14.15;;;;;;;16.60;69.54;100649.50;126030;1093;23216;-60
2021/06/07 05:29:07;;;;;;;25.55;13.10;;;;;;;16.67;68.66;100652.61;125811;1093;22767;-60
2021/06/07 05:31:38;;;;;;;26.15;13.45;;;;;;;16.78;68.78;100646.20;125771;1093;23277;-60
2021/06/07 05:34:09;;;;;;;25.33;13.75;;;;;;;16.87;68.35;100662.85;125846;1092;22867;-60
2021/06/07 05:36:40;;;;;;;25.30;14.27;;;;;;;16.99;68.43;100653.88;125767;1093;23460;-61
2021/06/07 05:39:15;;;;;;;24.57;13.30;;;;;;;17.12;68.34;100659.00;125867;1093;24635;-60
2021/06/07 05:41:46;;;;;;;24.05;14.05;;;;;;;17.24;68.38;100665.39;125922;1093;22818;-59
2021/06/07 05:44:18;;;;;;;22.70;13.85;;;;;;;17.39;68.56;100671.53;125856;1092;27411;-59
2021/06/07 05:46:51;;;;;;;22.70;14.90;;;;;;;17.51;67.63;100664.59;128922;1092;22922;-60
2021/06/07 05:49:22;;;;;;;22.70;13.00;;;;;;;17.61;67.86;100669.45;125958;1092;22835;-59
2021/06/07 05:51:55;;;;;;;23.80;14.45;;;;;;;17.76;68.05;100666.33;125969;1093;25874;-60
2021/06/07 05:54:25;;;;;;;25.30;15.45;;;;;;;17.87;67.73;100671.95;125924;1093;22857;-60
2021/06/07 05:56:57;;;;;;;27.80;16.05;;;;;;;18.02;67.69;100663.90;125969;1092;22784;-59
2021/06/07 05:59:28;;;;;;;24.40;13.77;;;;;;;18.16;67.24;100664.88;125942;1093;22771;-60
2021/06/07 06:01:59;;;;;;;25.55;12.95;;;;;;;18.27;67.38;100665.58;125874;1092;24325;-59
2021/06/07 06:04:36;;;;;;;24.60;12.30;;;;;;;18.41;66.97;100667.31;125952;1093;22924;-59
2021/06/07 06:07:08;;;;;;;23.75;9.70;;;;;;;18.53;66.47;100665.98;125958;1092;22853;-60
2021/06/07 06:09:39;;;;;;;20.00;10.00;;;;;;;18.63;65.92;100669.24;125957;1093;22748;-59
2021/06/07 06:12:12;;;;;;;19.87;7.33;;;;;;;18.75;65.48;100667.86;126058;1093;22806;-60
2021/06/07 06:14:43;;;;;;;16.30;7.30;;;;;;;18.87;64.90;100665.73;126000;1093;26246;-60
2021/06/07 06:17:14;;;;;;;24.70;7.40;;;;;;;18.97;65.07;100672.59;125909;1093;26568;-59
2021/06/07 06:19:46;;;;;;;21.40;7.87;;;;;;;19.06;65.47;100669.41;125912;1093;22760;-57
2021/06/07 06:22:17;;;;;;;15.00;6.33;;;;;;;19.20;65.26;100674.69;125912;1093;22820;-59
2021/06/07 06:24:48;;;;;;;17.85;6.35;;;;;;;19.33;64.31;100671.22;125910;1093;22764;-59
2021/06/07 06:27:19;;;;;;;11.10;5.50;;;;;;;19.48;63.85;100665.19;125819;1093;22870;-58
2021/06/07 06:29:50;;;;;;;18.50;6.95;;;;;;;19.59;63.71;100674.34;125935;1093;25813;-59
2021/06/07 06:32:22;;;;;;;16.40;6.70;;;;;;;19.72;63.68;100680.10;125823;1092;22767;-60
2021/06/07 06:34:54;;;;;;;22.03;9.17;;;;;;;19.83;62.80;100677.15;126025;1092;22796;-60
2021/06/07 06:37:25;;;;;;;16.70;7.45;;;;;;;19.89;62.55;100675.02;125919;1092;26230;-60
2021/06/07 06:39:56;;;;;;;19.60;9.10;;;;;;;19.99;62.69;100670.50;125865;1093;22790;-60
2021/06/07 06:42:30;;;;;;;23.57;9.50;;;;;;;20.12;62.37;100667.77;125909;1092;22764;-60
2021/06/07 06:45:02;;;;;;;18.90;8.75;;;;;;;20.29;62.35;100675.31;125742;1093;22784;-60
2021/06/07 06:47:34;;;;;;;22.87;9.10;;;;;;;20.46;61.79;100667.34;125910;1092;22746;-60
2021/06/07 06:50:10;;;;;;;20.17;8.30;;;;;;;20.59;62.10;100670.99;125776;1093;24259;-60
2021/06/07 06:52:41;;;;;;;23.35;10.10;;;;;;;20.74;61.25;100674.13;125986;1093;23241;-60
2021/06/07 06:55:15;;;;;;;16.97;7.53;;;;;;;20.86;61.15;100675.47;126015;1092;22855;-60
2021/06/07 06:57:46;;;;;;;20.35;8.95;;;;;;;20.98;60.33;100676.82;125974;1092;27364;-59
2021/06/07 07:00:18;;;;;;;21.88;8.45;;;;;;;21.09;59.83;100673.06;125833;1093;22758;-60
2021/06/07 07:02:49;;;;;;;18.33;7.57;;;;;;;21.21;60.11;100677.23;125782;1092;22793;-60
2021/06/07 07:05:23;;;;;;;20.35;7.35;;;;;;;21.37;59.71;100672.58;125895;1093;22767;-60
2021/06/07 07:07:54;;;;;;;22.20;6.53;;;;;;;21.54;59.22;100670.20;125947;1093;25925;-60
2021/06/07 07:10:25;;;;;;;28.50;7.93;;;;;;;21.67;58.40;100673.03;125836;1092;22928;-60
2021/06/07 07:12:57;;;;;;;21.85;7.13;;;;;;;21.78;58.18;100677.73;125848;1093;26229;-60
2021/06/07 07:15:28;;;;;;;26.57;7.53;;;;;;;21.84;57.05;100675.58;126049;1093;27673;-60
2021/06/07 07:17:59;;;;;;;19.83;5.48;;;;;;;21.85;56.55;100668.59;125878;1093;22785;-60
2021/06/07 07:20:30;;;;;;;17.55;5.28;;;;;;;21.91;56.93;100674.92;125989;1093;22856;-60
2021/06/07 07:23:02;;;;;;;16.23;5.53;;;;;;;21.94;56.82;100685.95;125805;1093;24535;-61
2021/06/07 07:25:34;;;;;;;21.75;5.88;;;;;;;21.98;55.97;100680.70;126037;1093;22815;-60
2021/06/07 07:28:07;;;;;;;17.73;3.23;;;;;;;22.01;55.21;100690.22;125882;1092;26248;-60
2021/06/07 07:30:39;;;;;;;21.77;3.73;;;;;;;22.01;54.05;100690.99;126004;1092;22748;-60
2021/06/07 07:33:10;;;;;;;22.03;3.77;;;;;;;22.02;53.80;100686.05;125812;1093;22799;-60
2021/06/07 07:35:43;;;;;;;12.48;3.05;;;;;;;22.03;53.92;100687.59;126084;1092;23870;-60
2021/06/07 07:38:17;;;;;;;14.50;3.43;;;;;;;22.08;52.73;100690.31;126000;1092;22748;-60
2021/06/07 07:40:48;;;;;;;11.77;2.60;;;;;;;22.16;52.83;100685.48;125880;1093;22766;-60
2021/06/07 07:43:23;;;;;;;11.63;3.43;;;;;;;22.26;52.42;100688.66;125874;1093;26661;-60
2021/06/07 07:45:54;;;;;;;19.60;3.98;;;;;;;22.32;52.14;100689.30;126028;1093;22799;-60
2021/06/07 07:48:26;;;;;;;17.98;4.28;;;;;;;22.37;52.82;100679.86;126044;1093;22790;-60
2021/06/07 07:50:57;;;;;;;12.95;4.13;;;;;;;22.49;52.84;100687.59;125938;1093;22799;-60
2021/06/07 07:53:31;;;;;;;18.33;4.85;;;;;;;22.56;51.94;100689.00;126059;1093;22861;-61
2021/06/07 07:56:02;;;;;;;14.08;3.40;;;;;;;22.63;51.41;100690.44;125958;1093;22941;-60
2021/06/07 07:58:33;;;;;;;13.45;3.73;;;;;;;22.71;50.29;100697.75;125964;1093;22858;-60
2021/06/07 08:01:05;;;;;;;15.73;3.78;;;;;;;22.74;50.50;100699.47;125903;1093;22786;-60
2021/06/07 08:03:36;;;;;;;14.80;3.55;;;;;;;22.81;49.88;100695.19;125965;1093;26485;-60
2021/06/07 08:06:09;;;;;;;15.23;3.50;;;;;;;22.80;49.80;100694.41;125910;1093;22791;-61
2021/06/07 08:08:39;;;;;;;12.10;2.20;;;;;;;22.84;49.62;100689.17;126011;1093;25900;-61
2021/06/07 08:11:13;;;;;;;11.50;2.95;;;;;;;22.95;49.48;100688.11;125936;1093;24564;-62
2021/06/07 08:13:43;;;;;;;14.63;2.93;;;;;;;23.06;49.57;100691.46;126062;1093;26235;-60
2021/06/07 08:16:14;;;;;;;12.20;3.20;;;;;;;23.15;49.41;100690.21;126009;1093;24735;-60
2021/06/07 08:18:46;;;;;;;13.13;2.40;;;;;;;23.26;49.55;100689.91;125959;1093;24295;-60
2021/06/07 08:21:17;;;;;;;9.50;2.60;;;;;;;23.41;48.99;100689.30;125932;1092;24596;-60
2021/06/07 08:23:49;;;;;;;11.25;3.28;;;;;;;23.51;48.24;100688.24;126109;1093;24595;-60
2021/06/07 08:26:20;;;;;;;10.63;3.43;;;;;;;23.61;48.03;100679.97;125989;1093;28649;-60
2021/06/07 08:28:51;;;;;;;13.30;3.20;;;;;;;23.68;47.44;100687.79;125810;1093;22787;-61
2021/06/07 08:31:22;;;;;;;10.87;3.10;;;;;;;23.71;47.71;100681.72;125835;1093;24161;-61
2021/06/07 08:33:53;;;;;;;13.45;4.08;;;;;;;23.77;47.72;100684.44;126018;1092;22859;-61
2021/06/07 08:36:26;;;;;;;14.45;2.98;;;;;;;23.84;47.05;100687.33;126104;1093;22793;-60
2021/06/07 08:38:57;;;;;;;13.85;2.75;;;;;;;23.89;46.62;100688.50;126043;1093;27319;-60
2021/06/07 08:41:28;;;;;;;11.48;2.73;;;;;;;23.96;46.76;100677.13;125984;1092;22786;-61
2021/06/07 08:44:00;;;;;;;10.90;2.70;;;;;;;24.06;45.72;100683.85;125889;1093;25967;-61
2021/06/07 08:46:31;;;;;;;9.25;2.10;;;;;;;24.12;44.90;100680.09;125888;1092;24459;-61
2021/06/07 08:49:02;;;;;;;8.33;1.57;;;;;;;24.22;44.46;100678.23;125902;1093;22755;-60
2021/06/07 08:51:33;;;;;;;8.00;1.15;;;;;;;24.33;42.88;100683.61;125973;1093;26247;-60
2021/06/07 08:54:05;;;;;;;5.10;1.45;;;;;;;24.34;42.32;100683.03;126091;1093;27214;-61
2021/06/07 08:56:40;;;;;;;7.58;1.58;;;;;;;24.35;42.47;100683.81;125910;1093;22790;-61
2021/06/07 08:59:11;;;;;;;6.75;1.63;;;;;;;24.35;42.45;100690.28;126113;1093;22748;-60
2021/06/07 09:01:44;;;;;;;6.45;1.50;;;;;;;24.40;42.50;100685.71;125893;1092;24570;-60
2021/06/07 09:04:18;;;;;;;5.20;1.58;;;;;;;24.48;41.95;100678.70;125887;1093;22794;-61
2021/06/07 09:06:50;;;;;;;9.15;1.80;;;;;;;24.55;41.96;100686.54;125840;1093;22784;-60
2021/06/07 09:09:25;;;;;;;7.28;1.90;;;;;;;24.59;41.57;100681.22;126061;1093;24460;-61
2021/06/07 09:12:00;;;;;;;7.18;1.70;;;;;;;24.63;41.70;100683.70;126012;1093;27706;-60
2021/06/07 09:14:33;;;;;;;8.28;1.60;;;;;;;24.65;41.49;100681.80;126578;1090;22800;-57
2021/06/07 09:17:17;;;;;;;9.50;1.78;;;;;;;24.69;41.52;100676.48;126087;1092;22764;-59
2021/06/07 09:19:49;;;;;;;5.95;1.73;;;;;;;24.79;40.81;100682.42;126107;1093;27651;-58
2021/06/07 09:22:25;;;;;;;8.68;2.03;;;;;;;24.86;40.64;100679.60;125902;1093;27247;-58
2021/06/07 09:25:08;;;;;;;6.78;1.93;;;;;;;24.97;40.83;100681.33;125958;1093;22909;-59
2021/06/07 09:27:59;;;;;;;8.35;1.85;;;;;;;25.07;40.47;100670.09;125856;1093;26395;-58
2021/06/07 09:30:31;;;;;;;13.73;2.00;;;;;;;25.13;39.93;100670.67;125784;1093;22797;-59
2021/06/07 09:33:36;;;;;;;6.65;2.10;;;;;;;25.21;39.42;100675.05;125885;1093;22771;-57
2021/06/07 09:36:17;;;;;;;6.10;1.70;;;;;;;25.16;38.10;100666.69;125741;1092;22927;-59
2021/06/07 09:39:17;;;;;;;3.70;1.15;;;;;;;25.15;37.43;100671.63;125830;1093;22822;-58
2021/06/07 09:42:01;;;;;;;4.83;1.08;;;;;;;25.11;37.22;100662.67;125864;1093;25897;-59
2021/06/07 09:44:41;;;;;;;5.40;1.20;;;;;;;25.13;37.19;100662.09;125963;1093;24248;-60
2021/06/07 09:47:20;;;;;;;4.10;1.30;;;;;;;25.13;37.40;100670.67;125803;1093;22864;-59
2021/06/07 09:49:58;;;;;;;7.48;1.60;;;;;;;25.10;36.96;100666.11;125862;1093;22791;-57
2021/06/07 09:52:32;;;;;;;4.18;1.20;;;;;;;25.06;36.35;100662.88;125907;1093;22860;-56
2021/06/07 09:55:21;;;;;;;6.93;1.60;;;;;;;25.03;36.73;100664.77;125816;1093;22854;-56
2021/06/07 09:57:54;;;;;;;7.33;1.60;;;;;;;25.08;37.21;100655.23;125821;1092;22770;-59
2021/06/07 10:00:41;;;;;;;6.70;1.48;;;;;;;25.15;36.90;100651.63;125802;1093;22770;-57
2021/06/07 10:03:25;;;;;;;6.45;1.50;;;;;;;25.18;36.34;100650.47;125765;1093;22797;-56
2021/06/07 10:06:00;;;;;;;7.23;1.83;;;;;;;25.25;36.62;100638.28;125874;1093;22867;-59
2021/06/07 10:08:44;;;;;;;5.00;1.50;;;;;;;25.37;36.57;100652.94;125904;1093;22867;-60
2021/06/07 10:11:23;;;;;;;5.50;1.50;;;;;;;25.36;35.52;100657.14;125799;1093;22752;-57
2021/06/07 10:14:07;;;;;;;6.98;1.70;;;;;;;25.34;35.92;100656.95;125915;1092;22925;-59
2021/06/07 10:16:48;;;;;;;5.13;1.33;;;;;;;25.29;35.38;100655.04;125912;1093;22818;-59
2021/06/07 10:19:30;;;;;;;4.88;1.55;;;;;;;25.36;35.38;100651.42;125841;1093;22822;-59
2021/06/07 10:22:04;;;;;;;5.53;1.70;;;;;;;25.45;35.61;100645.91;125771;1093;22824;-60
2021/06/07 10:24:35;;;;;;;5.80;1.40;;;;;;;25.58;36.25;100647.80;125903;1093;22786;-58
2021/06/07 10:27:07;;;;;;;5.70;1.50;;;;;;;25.72;35.84;100643.38;125763;1093;22797;-58
2021/06/07 10:29:42;;;;;;;5.70;1.35;;;;;;;25.77;34.95;100653.09;125920;1093;22797;-59
2021/06/07 10:32:17;;;;;;;5.93;1.53;;;;;;;25.82;35.17;100640.70;125834;1093;24457;-59
2021/06/07 10:34:50;;;;;;;5.25;1.45;;;;;;;25.92;35.30;100641.61;125936;1093;24470;-59
2021/06/07 10:37:22;;;;;;;6.53;1.50;;;;;;;25.95;34.56;100646.20;125809;1093;22770;-59
2021/06/07 10:40:13;;;;;;;4.58;1.30;;;;;;;25.94;34.34;100641.80;125868;1093;22903;-58
2021/06/07 10:42:57;;;;;;;5.33;1.35;;;;;;;25.89;33.92;100640.66;125725;1093;24624;-59
2021/06/07 10:45:31;;;;;;;5.68;1.18;;;;;;;25.82;33.39;100643.56;125972;1093;22803;-59
2021/06/07 10:48:03;;;;;;;5.93;1.25;;;;;;;25.68;33.70;100643.77;125944;1093;22804;-59
2021/06/07 10:50:39;;;;;;;3.13;1.10;;;;;;;25.54;33.33;100644.56;125910;1093;22770;-59
2021/06/07 10:53:24;;;;;;;6.77;1.60;;;;;;;25.45;33.92;100639.45;125821;1093;22753;-59
2021/06/07 10:56:06;;;;;;;5.13;1.48;;;;;;;25.43;34.28;100634.28;125782;1093;22803;-57
2021/06/07 10:58:49;;;;;;;6.18;1.30;;;;;;;25.42;34.22;100635.64;125771;1093;22770;-57
2021/06/07 11:01:20;;;;;;;7.65;1.73;;;;;;;25.41;34.46;100634.10;125718;1093;22899;-58
2021/06/07 11:04:00;;;;;;;4.35;1.38;;;;;;;25.44;34.33;100635.05;125806;1093;22770;-59
2021/06/07 11:06:31;;;;;;;6.23;1.25;;;;;;;25.49;33.96;100639.83;125890;1093;22809;-58
2021/06/07 11:09:08;;;;;;;4.43;1.40;;;;;;;25.55;33.61;100629.69;125872;1093;22871;-59
2021/06/07 11:11:47;;;;;;;6.58;2.08;;;;;;;25.60;33.44;100628.73;126188;1093;26568;-59
2021/06/07 11:14:22;;;;;;;6.10;1.40;;;;;;;25.68;33.29;100627.97;125946;1093;22780;-61
2021/06/07 11:16:54;;;;;;;5.08;1.40;;;;;;;25.74;33.46;100622.80;125772;1093;22863;-59
2021/06/07 11:19:25;;;;;;;9.30;1.43;;;;;;;25.80;32.96;100621.27;125781;1093;22937;-58
2021/06/07 11:22:02;;;;;;;5.68;1.20;;;;;;;25.78;32.17;100623.94;125821;1093;22877;-61
2021/06/07 11:24:39;;;;;;;5.35;1.13;;;;;;;25.77;32.86;100621.64;125814;1093;22938;-59
2021/06/07 11:27:37;;;;;;;4.28;1.23;;;;;;;25.80;32.04;100617.63;125903;1093;22790;-58
2021/06/07 11:30:19;;;;;;;3.80;1.27;;;;;;;25.86;32.08;100616.09;125749;1092;27374;-60
2021/06/07 11:32:50;;;;;;;4.80;1.55;;;;;;;25.85;32.65;100608.06;125798;1093;27246;-60
2021/06/07 11:35:44;;;;;;;4.78;1.40;;;;;;;25.91;32.64;100611.47;125760;1093;22809;-58
2021/06/07 11:38:36;;;;;;;6.40;1.20;;;;;;;25.99;32.64;100601.53;125657;1096;25976;-59